Windham, NY

8:10 PM EDT on August 21, 2014 (GMT -0400)
Dutchess County | Change Station
CLOSE
Current Station
Airport
Location: Poughkeepsie,
Elevation: 164 ft
Nearby Weather Stations

Elev 164 ft 41.63 °N, 73.88 °W | Updated 17 minutes ago

Mostly Cloudy
Mostly Cloudy
74 °F
Feels Like 74 °F
N
7
Wind Variable Wind from SSE

Today
High -- | Low -- °F
--% Chance of Precip.
Yesterday
High -- | Low -- °F
Precip. -- in
6:10 AM 7:49 PM
Waning Crescent, 11% visible
Pressure 29.99 in
Visibility 10.0 miles
Clouds Scattered Clouds 6000 ft
Mostly Cloudy 7000 ft
Mostly Cloudy 12000 ft
Dew Point 60 °F
Humidity 62%
Rainfall 0.05 in
Snow Depth Not available.
UV 0 out of 12
Pollen 5.80 out of 12
Air Quality Not available.
Flu Activity Not available.
METAR KPOU 212353Z AUTO 15006KT 10SM SCT060 BKN070 BKN120 23/16 A3000 RMK AO2 LTG DSNT S SLP155 T02330156 10261 20228 53005

More Conditions Fewer Conditions

Pressure 29.99 in
Visibility 10.0 miles
Clouds Scattered Clouds 6000 ft
Mostly Cloudy 7000 ft
Mostly Cloudy 12000 ft
Dew Point 60 °F
Humidity 62%
Rainfall 0.05 in
Snow Depth Not available.
UV 0 out of 12
Pollen 5.80 out of 12
Air Quality Not available.
Flu Activity Not available.
METAR KPOU 212353Z AUTO 15006KT 10SM SCT060 BKN070 BKN120 23/16 A3000 RMK AO2 LTG DSNT S SLP155 T02330156 10261 20228 53005

More Conditions Fewer Conditions

10-Day Weather Forecast

Almanac

Astronomy

Aug. 21, 2014 Rise Set
Actual Time 6:10 AM EDT 7:49 PM EDT
Civil Twilight 5:41 AM EDT 8:18 PM EDT
Nautical Twilight 5:04 AM EDT 8:54 PM EDT
Astronomical Twilight 4:26 AM EDT 9:32 PM EDT
Moon 2:36 AM EDT (8/21) 5:17 PM EDT (8/21)
Length of Visible Light 14h 37m
Length of Day
13h 38m
Tomorrow will be 2m 38s shorter.
Waning Crescent, 11% of the Moon is Illuminated
Today
Waning Crescent
Aug 25
New
Sep 2
First Quarter
Sep 8
Full
Sep 15
Last Quarter

Today's Extremes

State Highs State Lows

Community

WunderPhotos

Upload Photos

1,746,059 photos uploaded!

Nearby

Air Quality

  Air Quality AQ Index Pollutant
Yesterday Moderate
OZONE
Yesterday Good
PM2.5
Thursday Good
PM2.5
Thursday Good
OZONE
Friday Good
PM2.5
Friday Good
OZONE

Snow Depth

Station Depth Elevation
No new snow has been reported.

Earthquake Activity

City Distance Mag. Time & Date
No recent earthquake activity has been reported nearby.
Minimum magnitude displayed is 2.5.

Coastal Water Temperatures

Place Temperature
No Stations Reporting

Nearby Weather Stations